Sid Moller — WDF9421 — position and weather

sailwx.info

Track history (hours):
 
Tides and Currents Weather Stations Pressure Air Temp Water Temp Dewpoint Dewpoint Depression Visibility Wind Speed Wind Dir Waves Ship Positions

Sid Moller

Owner: Genesis Marine, LLC, Houston, TX. More information available from US FCC via Universal Licensing System and Coast Guard Vessel Documentation Center.

Last reported at 2017-Feb-22 07:30 UTC. Time now 2017-Feb-23 20:44 UTC.
Position N 29°33' W 090°27'.

Length 26 m; draft 3 m.

Type: Ship (hazmat cat A). MMSI: 367504980.

Date/timePositionNaut miles runAvg speedWind from/ knotsBaromVisibWave heightAir tempDewpointWater temp
2017-Feb-22 07:30N 29°33' W 090°27'3 3.6
2017-Feb-22 06:33N 29°34' W 090°30'4 4.1
2017-Feb-22 05:33N 29°35' W 090°35'4 4.2
2017-Feb-22 04:33N 29°36' W 090°40'3 2.7
2017-Feb-22 03:33N 29°36' W 090°43'3 3.1
2017-Feb-22 02:33N 29°33' W 090°45'1 1.0
2017-Feb-22 01:33N 29°33' W 090°46'4 3.6
2017-Feb-22 00:33N 29°32' W 090°50'5 5.1
2017-Feb-21 23:33N 29°34' W 090°55'55 2.1
2017-Feb-20 20:32N 29°51' W 091°56'4 3.9
2017-Feb-20 19:33N 29°50' W 092°00'0 0.3
2017-Feb-20 18:33N 29°50' W 091°60'0 0.0
2017-Feb-20 17:33N 29°50' W 091°60'0 0.0
2017-Feb-20 16:33N 29°50' W 091°60'0 0.0
2017-Feb-20 15:33N 29°50' W 091°60'0 0.0
2017-Feb-20 14:33N 29°50' W 091°60'0 0.1
2017-Feb-20 13:33N 29°50' W 091°60'0 0.2
2017-Feb-20 12:33N 29°50' W 091°59'3 3.5
2017-Feb-20 11:33N 29°51' W 091°56'32 3.9
2017-Feb-20 03:20N 29°39' W 091°22'  
2017-Feb-12 19:13N 29°34' W 090°29'4 5.7
2017-Feb-12 18:33N 29°34' W 090°34'5 5.3
2017-Feb-12 17:33N 29°36' W 090°39'4 3.7
2017-Feb-12 16:33N 29°34' W 090°43'4 4.0
2017-Feb-12 15:33N 29°32' W 090°47'6 6.1
2017-Feb-12 14:31N 29°33' W 090°54'  
Track history (hours):
 
Tides and Currents Weather Stations Pressure Air Temp Water Temp Dewpoint Dewpoint Depression Visibility Wind Speed Wind Dir Waves Ship Positions

Sid Moller

Owner: Genesis Marine, LLC, Houston, TX. More information available from US FCC via Universal Licensing System and Coast Guard Vessel Documentation Center.

Last reported at 2017-Feb-22 07:30 UTC. Time now 2017-Feb-23 20:44 UTC.
Position N 29°33' W 090°27'.

Length 26 m; draft 3 m.

Type: Ship (hazmat cat A). MMSI: 367504980.

Date/timePositionNaut miles runAvg speedWind from/ knotsBaromVisibWave heightAir tempDewpointWater temp
2017-Feb-22 07:30N 29°33' W 090°27'3 3.6
2017-Feb-22 06:33N 29°34' W 090°30'4 4.1
2017-Feb-22 05:33N 29°35' W 090°35'4 4.2
2017-Feb-22 04:33N 29°36' W 090°40'3 2.7
2017-Feb-22 03:33N 29°36' W 090°43'3 3.1
2017-Feb-22 02:33N 29°33' W 090°45'1 1.0
2017-Feb-22 01:33N 29°33' W 090°46'4 3.6
2017-Feb-22 00:33N 29°32' W 090°50'5 5.1
2017-Feb-21 23:33N 29°34' W 090°55'55 2.1
2017-Feb-20 20:32N 29°51' W 091°56'4 3.9
2017-Feb-20 19:33N 29°50' W 092°00'0 0.3
2017-Feb-20 18:33N 29°50' W 091°60'0 0.0
2017-Feb-20 17:33N 29°50' W 091°60'0 0.0
2017-Feb-20 16:33N 29°50' W 091°60'0 0.0
2017-Feb-20 15:33N 29°50' W 091°60'0 0.0
2017-Feb-20 14:33N 29°50' W 091°60'0 0.1
2017-Feb-20 13:33N 29°50' W 091°60'0 0.2
2017-Feb-20 12:33N 29°50' W 091°59'3 3.5
2017-Feb-20 11:33N 29°51' W 091°56'32 3.9
2017-Feb-20 03:20N 29°39' W 091°22'  
2017-Feb-12 19:13N 29°34' W 090°29'4 5.7
2017-Feb-12 18:33N 29°34' W 090°34'5 5.3
2017-Feb-12 17:33N 29°36' W 090°39'4 3.7
2017-Feb-12 16:33N 29°34' W 090°43'4 4.0
2017-Feb-12 15:33N 29°32' W 090°47'6 6.1
2017-Feb-12 14:31N 29°33' W 090°54'  

Dump ship's entire track history